sensor_id;sensor_type;location;lat;lon;timestamp;temperature;humidity
4725;DHT22;2376;53.544;10.226;2023-06-19T00:00:53;20.80;99.90
4725;DHT22;2376;53.544;10.226;2023-06-19T00:03:19;20.90;99.90
4725;DHT22;2376;53.544;10.226;2023-06-19T00:05:46;20.90;99.90
4725;DHT22;2376;53.544;10.226;2023-06-19T00:08:13;20.90;99.90
4725;DHT22;2376;53.544;10.226;2023-06-19T00:10:41;20.80;99.90
4725;DHT22;2376;53.544;10.226;2023-06-19T00:13:08;20.80;99.90
4725;DHT22;2376;53.544;10.226;2023-06-19T00:15:34;20.60;99.90
4725;DHT22;2376;53.544;10.226;2023-06-19T00:18:01;20.50;99.90
4725;DHT22;2376;53.544;10.226;2023-06-19T00:20:28;20.50;99.90
4725;DHT22;2376;53.544;10.226;2023-06-19T00:22:55;20.60;99.90
4725;DHT22;2376;53.544;10.226;2023-06-19T00:25:21;20.60;99.90
4725;DHT22;2376;53.544;10.226;2023-06-19T00:27:49;20.70;99.90
4725;DHT22;2376;53.544;10.226;2023-06-19T00:30:16;20.70;99.90
4725;DHT22;2376;53.544;10.226;2023-06-19T00:32:43;20.70;99.90
4725;DHT22;2376;53.544;10.226;2023-06-19T00:35:13;20.80;99.90
4725;DHT22;2376;53.544;10.226;2023-06-19T00:37:40;20.90;99.90
4725;DHT22;2376;53.544;10.226;2023-06-19T00:40:12;20.90;99.90
4725;DHT22;2376;53.544;10.226;2023-06-19T00:42:41;20.80;99.90
4725;DHT22;2376;53.544;10.226;2023-06-19T00:45:10;21.00;99.90
4725;DHT22;2376;53.544;10.226;2023-06-19T00:47:37;20.90;99.90
4725;DHT22;2376;53.544;10.226;2023-06-19T00:50:05;20.90;99.90
4725;DHT22;2376;53.544;10.226;2023-06-19T00:52:33;20.90;99.90
4725;DHT22;2376;53.544;10.226;2023-06-19T00:55:00;20.90;99.90
4725;DHT22;2376;53.544;10.226;2023-06-19T00:57:27;20.80;99.90
4725;DHT22;2376;53.544;10.226;2023-06-19T00:59:55;21.10;99.90
4725;DHT22;2376;53.544;10.226;2023-06-19T01:02:23;20.80;99.90
4725;DHT22;2376;53.544;10.226;2023-06-19T01:04:50;20.70;99.90
4725;DHT22;2376;53.544;10.226;2023-06-19T01:07:20;20.50;99.90
4725;DHT22;2376;53.544;10.226;2023-06-19T01:09:52;20.60;99.90
4725;DHT22;2376;53.544;10.226;2023-06-19T01:12:22;20.40;99.90
4725;DHT22;2376;53.544;10.226;2023-06-19T01:14:54;20.50;99.90
4725;DHT22;2376;53.544;10.226;2023-06-19T01:17:25;20.50;99.90
4725;DHT22;2376;53.544;10.226;2023-06-19T01:19:53;20.40;99.90
4725;DHT22;2376;53.544;10.226;2023-06-19T01:22:26;20.40;99.90
4725;DHT22;2376;53.544;10.226;2023-06-19T01:24:53;20.30;99.90
4725;DHT22;2376;53.544;10.226;2023-06-19T01:27:19;20.30;99.90
4725;DHT22;2376;53.544;10.226;2023-06-19T01:29:47;20.40;99.90
4725;DHT22;2376;53.544;10.226;2023-06-19T01:32:20;20.40;99.90
4725;DHT22;2376;53.544;10.226;2023-06-19T01:34:47;20.30;99.90
4725;DHT22;2376;53.544;10.226;2023-06-19T01:37:14;20.40;99.90
4725;DHT22;2376;53.544;10.226;2023-06-19T01:39:45;20.40;99.90
4725;DHT22;2376;53.544;10.226;2023-06-19T01:42:13;20.40;99.90
4725;DHT22;2376;53.544;10.226;2023-06-19T01:44:40;20.30;99.90
4725;DHT22;2376;53.544;10.226;2023-06-19T01:47:09;20.30;99.90
4725;DHT22;2376;53.544;10.226;2023-06-19T01:49:36;20.40;99.90
4725;DHT22;2376;53.544;10.226;2023-06-19T01:52:03;20.40;99.90
4725;DHT22;2376;53.544;10.226;2023-06-19T01:54:30;20.50;99.90
4725;DHT22;2376;53.544;10.226;2023-06-19T01:56:59;20.50;99.90
4725;DHT22;2376;53.544;10.226;2023-06-19T01:59:25;20.60;99.90
4725;DHT22;2376;53.544;10.226;2023-06-19T02:01:52;20.60;99.90
4725;DHT22;2376;53.544;10.226;2023-06-19T02:04:19;20.70;99.90
4725;DHT22;2376;53.544;10.226;2023-06-19T02:06:45;20.50;99.90
4725;DHT22;2376;53.544;10.226;2023-06-19T02:09:12;20.90;99.90
4725;DHT22;2376;53.544;10.226;2023-06-19T02:11:39;20.90;99.90
4725;DHT22;2376;53.544;10.226;2023-06-19T02:14:09;20.90;99.90
4725;DHT22;2376;53.544;10.226;2023-06-19T02:16:36;20.90;99.90
4725;DHT22;2376;53.544;10.226;2023-06-19T02:19:03;20.90;99.90
4725;DHT22;2376;53.544;10.226;2023-06-19T02:21:30;20.80;99.90
4725;DHT22;2376;53.544;10.226;2023-06-19T02:23:57;20.80;99.90
4725;DHT22;2376;53.544;10.226;2023-06-19T02:26:24;20.80;99.90
4725;DHT22;2376;53.544;10.226;2023-06-19T02:28:53;20.80;99.90
4725;DHT22;2376;53.544;10.226;2023-06-19T02:31:20;20.80;99.90
4725;DHT22;2376;53.544;10.226;2023-06-19T02:33:47;20.70;99.90
4725;DHT22;2376;53.544;10.226;2023-06-19T02:36:14;20.80;99.90
4725;DHT22;2376;53.544;10.226;2023-06-19T02:38:45;20.80;99.90
4725;DHT22;2376;53.544;10.226;2023-06-19T02:41:11;20.80;99.90
4725;DHT22;2376;53.544;10.226;2023-06-19T02:43:39;20.90;99.90
4725;DHT22;2376;53.544;10.226;2023-06-19T02:46:05;20.80;99.90
4725;DHT22;2376;53.544;10.226;2023-06-19T02:48:34;20.80;99.90
4725;DHT22;2376;53.544;10.226;2023-06-19T02:51:00;20.80;99.90
4725;DHT22;2376;53.544;10.226;2023-06-19T02:53:27;20.90;99.90
4725;DHT22;2376;53.544;10.226;2023-06-19T02:55:54;20.80;99.90
4725;DHT22;2376;53.544;10.226;2023-06-19T02:58:20;20.90;99.90
4725;DHT22;2376;53.544;10.226;2023-06-19T03:00:47;20.90;99.90
4725;DHT22;2376;53.544;10.226;2023-06-19T03:03:14;20.90;99.90
4725;DHT22;2376;53.544;10.226;2023-06-19T03:05:42;20.90;99.90
4725;DHT22;2376;53.544;10.226;2023-06-19T03:08:09;20.90;99.90
4725;DHT22;2376;53.544;10.226;2023-06-19T03:10:36;20.90;99.90
4725;DHT22;2376;53.544;10.226;2023-06-19T03:13:02;20.80;99.90
4725;DHT22;2376;53.544;10.226;2023-06-19T03:15:29;20.70;99.90
4725;DHT22;2376;53.544;10.226;2023-06-19T03:17:56;20.80;99.90
4725;DHT22;2376;53.544;10.226;2023-06-19T03:20:22;20.80;99.90
4725;DHT22;2376;53.544;10.226;2023-06-19T03:22:50;20.80;99.90
4725;DHT22;2376;53.544;10.226;2023-06-19T03:25:17;20.80;99.90
4725;DHT22;2376;53.544;10.226;2023-06-19T03:27:45;20.80;99.90
4725;DHT22;2376;53.544;10.226;2023-06-19T03:30:12;20.70;99.90
4725;DHT22;2376;53.544;10.226;2023-06-19T03:32:38;20.60;99.90
4725;DHT22;2376;53.544;10.226;2023-06-19T03:35:05;20.60;99.90
4725;DHT22;2376;53.544;10.226;2023-06-19T03:37:32;20.70;99.90
4725;DHT22;2376;53.544;10.226;2023-06-19T03:40:00;20.70;99.90
4725;DHT22;2376;53.544;10.226;2023-06-19T03:42:28;20.80;99.90
4725;DHT22;2376;53.544;10.226;2023-06-19T03:44:55;20.80;99.90
4725;DHT22;2376;53.544;10.226;2023-06-19T03:47:21;20.90;99.90
4725;DHT22;2376;53.544;10.226;2023-06-19T03:49:48;20.90;99.90
4725;DHT22;2376;53.544;10.226;2023-06-19T03:52:15;20.90;99.90
4725;DHT22;2376;53.544;10.226;2023-06-19T03:54:41;20.90;99.90
4725;DHT22;2376;53.544;10.226;2023-06-19T03:57:09;20.90;99.90
4725;DHT22;2376;53.544;10.226;2023-06-19T03:59:36;20.90;99.90
4725;DHT22;2376;53.544;10.226;2023-06-19T04:02:03;20.80;99.90
4725;DHT22;2376;53.544;10.226;2023-06-19T04:04:30;20.90;99.90
4725;DHT22;2376;53.544;10.226;2023-06-19T04:06:57;20.80;99.90
4725;DHT22;2376;53.544;10.226;2023-06-19T04:09:24;20.80;99.90
4725;DHT22;2376;53.544;10.226;2023-06-19T04:11:51;20.80;99.90
4725;DHT22;2376;53.544;10.226;2023-06-19T04:14:19;20.80;99.90
4725;DHT22;2376;53.544;10.226;2023-06-19T04:16:48;20.80;99.90
4725;DHT22;2376;53.544;10.226;2023-06-19T04:19:15;20.80;99.90
4725;DHT22;2376;53.544;10.226;2023-06-19T04:21:41;20.80;99.90
4725;DHT22;2376;53.544;10.226;2023-06-19T04:24:08;20.80;99.90
4725;DHT22;2376;53.544;10.226;2023-06-19T04:26:35;20.80;99.90
4725;DHT22;2376;53.544;10.226;2023-06-19T04:29:03;20.80;99.90
4725;DHT22;2376;53.544;10.226;2023-06-19T04:31:32;20.80;99.90
4725;DHT22;2376;53.544;10.226;2023-06-19T04:33:58;20.80;99.90
4725;DHT22;2376;53.544;10.226;2023-06-19T04:36:25;20.80;99.90
4725;DHT22;2376;53.544;10.226;2023-06-19T04:38:51;20.90;99.90
4725;DHT22;2376;53.544;10.226;2023-06-19T04:41:18;20.90;99.90
4725;DHT22;2376;53.544;10.226;2023-06-19T04:43:45;20.90;99.90
4725;DHT22;2376;53.544;10.226;2023-06-19T04:46:11;20.90;99.90
4725;DHT22;2376;53.544;10.226;2023-06-19T04:48:39;20.80;99.90
4725;DHT22;2376;53.544;10.226;2023-06-19T04:51:06;20.80;99.90
4725;DHT22;2376;53.544;10.226;2023-06-19T04:53:33;20.80;99.90
4725;DHT22;2376;53.544;10.226;2023-06-19T04:55:59;20.80;99.90
4725;DHT22;2376;53.544;10.226;2023-06-19T04:58:26;20.90;99.90
4725;DHT22;2376;53.544;10.226;2023-06-19T05:00:53;20.90;99.90
4725;DHT22;2376;53.544;10.226;2023-06-19T05:03:20;20.80;99.90
4725;DHT22;2376;53.544;10.226;2023-06-19T05:05:48;20.70;99.90
4725;DHT22;2376;53.544;10.226;2023-06-19T05:08:15;20.70;99.90
4725;DHT22;2376;53.544;10.226;2023-06-19T05:10:42;20.70;99.90
4725;DHT22;2376;53.544;10.226;2023-06-19T05:13:08;20.70;99.90
4725;DHT22;2376;53.544;10.226;2023-06-19T05:15:35;20.70;99.90
4725;DHT22;2376;53.544;10.226;2023-06-19T05:18:02;20.70;99.90
4725;DHT22;2376;53.544;10.226;2023-06-19T05:20:28;20.70;99.90
4725;DHT22;2376;53.544;10.226;2023-06-19T05:22:57;20.60;99.90
4725;DHT22;2376;53.544;10.226;2023-06-19T05:25:23;20.60;99.90
4725;DHT22;2376;53.544;10.226;2023-06-19T05:27:50;20.60;99.90
4725;DHT22;2376;53.544;10.226;2023-06-19T05:30:17;20.50;99.90
4725;DHT22;2376;53.544;10.226;2023-06-19T05:32:44;20.40;99.90
4725;DHT22;2376;53.544;10.226;2023-06-19T05:35:10;20.40;99.90
4725;DHT22;2376;53.544;10.226;2023-06-19T05:37:37;20.30;99.90
4725;DHT22;2376;53.544;10.226;2023-06-19T05:40:07;20.50;99.90
4725;DHT22;2376;53.544;10.226;2023-06-19T05:42:35;20.50;99.90
4725;DHT22;2376;53.544;10.226;2023-06-19T05:45:02;20.60;99.90
4725;DHT22;2376;53.544;10.226;2023-06-19T05:47:29;20.60;99.90
4725;DHT22;2376;53.544;10.226;2023-06-19T05:49:56;20.60;99.90
4725;DHT22;2376;53.544;10.226;2023-06-19T05:52:23;20.60;99.90
4725;DHT22;2376;53.544;10.226;2023-06-19T05:54:49;20.70;99.90
4725;DHT22;2376;53.544;10.226;2023-06-19T05:57:19;20.80;99.90
4725;DHT22;2376;53.544;10.226;2023-06-19T05:59:46;20.80;99.90
4725;DHT22;2376;53.544;10.226;2023-06-19T06:02:13;20.90;99.90
4725;DHT22;2376;53.544;10.226;2023-06-19T06:04:40;20.90;99.90
4725;DHT22;2376;53.544;10.226;2023-06-19T06:07:08;20.90;99.90
4725;DHT22;2376;53.544;10.226;2023-06-19T06:09:34;21.00;99.90
4725;DHT22;2376;53.544;10.226;2023-06-19T06:12:01;21.00;99.90
4725;DHT22;2376;53.544;10.226;2023-06-19T06:14:29;21.10;99.90
4725;DHT22;2376;53.544;10.226;2023-06-19T06:16:56;21.10;99.90
4725;DHT22;2376;53.544;10.226;2023-06-19T06:19:22;21.10;99.90
4725;DHT22;2376;53.544;10.226;2023-06-19T06:21:49;21.10;99.90
4725;DHT22;2376;53.544;10.226;2023-06-19T06:24:16;21.10;99.90
4725;DHT22;2376;53.544;10.226;2023-06-19T06:26:43;21.10;99.90
4725;DHT22;2376;53.544;10.226;2023-06-19T06:29:10;21.20;99.90
4725;DHT22;2376;53.544;10.226;2023-06-19T06:31:39;21.20;99.90
4725;DHT22;2376;53.544;10.226;2023-06-19T06:34:07;21.30;99.90
4725;DHT22;2376;53.544;10.226;2023-06-19T06:36:35;21.30;99.90
4725;DHT22;2376;53.544;10.226;2023-06-19T06:39:02;21.40;99.90
4725;DHT22;2376;53.544;10.226;2023-06-19T06:41:28;21.40;99.90
4725;DHT22;2376;53.544;10.226;2023-06-19T06:43:55;21.40;99.90
4725;DHT22;2376;53.544;10.226;2023-06-19T06:46:22;21.50;99.90
4725;DHT22;2376;53.544;10.226;2023-06-19T06:48:50;21.40;99.90
4725;DHT22;2376;53.544;10.226;2023-06-19T06:51:17;21.50;99.90
4725;DHT22;2376;53.544;10.226;2023-06-19T06:53:44;21.60;99.90
4725;DHT22;2376;53.544;10.226;2023-06-19T06:56:10;21.60;99.90
4725;DHT22;2376;53.544;10.226;2023-06-19T06:58:37;21.70;99.90
4725;DHT22;2376;53.544;10.226;2023-06-19T07:01:04;21.60;99.90
4725;DHT22;2376;53.544;10.226;2023-06-19T07:03:31;21.60;99.90
4725;DHT22;2376;53.544;10.226;2023-06-19T07:05:59;21.60;99.90
4725;DHT22;2376;53.544;10.226;2023-06-19T07:08:26;21.70;99.90
4725;DHT22;2376;53.544;10.226;2023-06-19T07:10:53;21.70;99.90
4725;DHT22;2376;53.544;10.226;2023-06-19T07:13:19;21.70;99.90
4725;DHT22;2376;53.544;10.226;2023-06-19T07:15:46;21.90;99.90
4725;DHT22;2376;53.544;10.226;2023-06-19T07:18:13;21.90;99.90
4725;DHT22;2376;53.544;10.226;2023-06-19T07:20:39;21.90;99.90
4725;DHT22;2376;53.544;10.226;2023-06-19T07:23:08;21.50;99.90
4725;DHT22;2376;53.544;10.226;2023-06-19T07:25:35;21.20;99.90
4725;DHT22;2376;53.544;10.226;2023-06-19T07:28:02;21.10;99.90
4725;DHT22;2376;53.544;10.226;2023-06-19T07:30:30;21.00;99.90
4725;DHT22;2376;53.544;10.226;2023-06-19T07:32:56;21.20;99.90
4725;DHT22;2376;53.544;10.226;2023-06-19T07:35:23;21.40;99.90
4725;DHT22;2376;53.544;10.226;2023-06-19T07:37:50;21.40;99.90
4725;DHT22;2376;53.544;10.226;2023-06-19T07:40:18;21.40;99.90
4725;DHT22;2376;53.544;10.226;2023-06-19T07:42:44;21.60;99.90
4725;DHT22;2376;53.544;10.226;2023-06-19T07:45:12;21.50;99.90
4725;DHT22;2376;53.544;10.226;2023-06-19T07:47:39;21.40;99.90
4725;DHT22;2376;53.544;10.226;2023-06-19T07:50:07;21.40;99.90
4725;DHT22;2376;53.544;10.226;2023-06-19T07:52:33;21.60;99.90
4725;DHT22;2376;53.544;10.226;2023-06-19T07:55:00;21.70;99.90
4725;DHT22;2376;53.544;10.226;2023-06-19T07:57:28;21.80;99.90
4725;DHT22;2376;53.544;10.226;2023-06-19T07:59:55;21.90;99.90
4725;DHT22;2376;53.544;10.226;2023-06-19T08:02:22;22.00;99.90
4725;DHT22;2376;53.544;10.226;2023-06-19T08:04:48;22.00;99.90
4725;DHT22;2376;53.544;10.226;2023-06-19T08:07:16;22.10;99.90
4725;DHT22;2376;53.544;10.226;2023-06-19T08:09:42;22.20;99.90
4725;DHT22;2376;53.544;10.226;2023-06-19T08:12:09;22.30;99.90
4725;DHT22;2376;53.544;10.226;2023-06-19T08:14:37;22.40;99.90
4725;DHT22;2376;53.544;10.226;2023-06-19T08:17:04;22.50;99.90
4725;DHT22;2376;53.544;10.226;2023-06-19T08:19:31;22.60;99.90
4725;DHT22;2376;53.544;10.226;2023-06-19T08:21:57;22.50;99.90
4725;DHT22;2376;53.544;10.226;2023-06-19T08:24:24;22.70;99.90
4725;DHT22;2376;53.544;10.226;2023-06-19T08:26:51;22.90;99.90
4725;DHT22;2376;53.544;10.226;2023-06-19T08:29:17;22.80;99.90
4725;DHT22;2376;53.544;10.226;2023-06-19T08:31:45;22.90;99.90
4725;DHT22;2376;53.544;10.226;2023-06-19T08:34:12;23.10;99.90
4725;DHT22;2376;53.544;10.226;2023-06-19T08:36:39;23.40;99.90
4725;DHT22;2376;53.544;10.226;2023-06-19T08:39:06;23.50;99.90
4725;DHT22;2376;53.544;10.226;2023-06-19T08:41:33;23.60;99.90
4725;DHT22;2376;53.544;10.226;2023-06-19T08:44:00;23.80;99.90
4725;DHT22;2376;53.544;10.226;2023-06-19T08:46:28;24.00;99.90
4725;DHT22;2376;53.544;10.226;2023-06-19T08:48:56;24.20;99.90
4725;DHT22;2376;53.544;10.226;2023-06-19T08:51:23;24.30;99.90
4725;DHT22;2376;53.544;10.226;2023-06-19T08:53:55;24.60;99.90
4725;DHT22;2376;53.544;10.226;2023-06-19T08:56:22;24.80;99.90
4725;DHT22;2376;53.544;10.226;2023-06-19T08:58:49;24.80;99.90
4725;DHT22;2376;53.544;10.226;2023-06-19T09:01:17;24.70;99.90
4725;DHT22;2376;53.544;10.226;2023-06-19T09:03:44;25.00;99.90
4725;DHT22;2376;53.544;10.226;2023-06-19T09:06:15;25.10;99.90
4725;DHT22;2376;53.544;10.226;2023-06-19T09:08:42;25.30;99.90
4725;DHT22;2376;53.544;10.226;2023-06-19T09:11:09;25.40;99.90
4725;DHT22;2376;53.544;10.226;2023-06-19T09:13:35;25.20;99.90
4725;DHT22;2376;53.544;10.226;2023-06-19T09:16:04;25.40;99.90
4725;DHT22;2376;53.544;10.226;2023-06-19T09:18:41;25.70;99.90
4725;DHT22;2376;53.544;10.226;2023-06-19T09:21:16;25.80;99.90
4725;DHT22;2376;53.544;10.226;2023-06-19T09:23:43;25.70;99.90
4725;DHT22;2376;53.544;10.226;2023-06-19T09:26:10;25.90;99.40
4725;DHT22;2376;53.544;10.226;2023-06-19T09:28:41;26.20;98.10
4725;DHT22;2376;53.544;10.226;2023-06-19T09:31:08;26.60;97.90
4725;DHT22;2376;53.544;10.226;2023-06-19T09:33:37;26.60;96.70
4725;DHT22;2376;53.544;10.226;2023-06-19T09:36:06;26.40;97.10
4725;DHT22;2376;53.544;10.226;2023-06-19T09:38:36;26.70;95.80
4725;DHT22;2376;53.544;10.226;2023-06-19T09:41:05;27.00;94.30
4725;DHT22;2376;53.544;10.226;2023-06-19T09:43:36;27.10;93.00
4725;DHT22;2376;53.544;10.226;2023-06-19T09:46:03;27.30;92.80
4725;DHT22;2376;53.544;10.226;2023-06-19T09:48:32;27.50;91.60
4725;DHT22;2376;53.544;10.226;2023-06-19T09:51:02;27.60;90.20
4725;DHT22;2376;53.544;10.226;2023-06-19T09:53:30;27.80;89.50
4725;DHT22;2376;53.544;10.226;2023-06-19T09:55:59;27.80;85.10
4725;DHT22;2376;53.544;10.226;2023-06-19T09:58:26;27.90;84.30
4725;DHT22;2376;53.544;10.226;2023-06-19T10:00:54;28.00;83.10
4725;DHT22;2376;53.544;10.226;2023-06-19T10:03:29;28.00;80.70
4725;DHT22;2376;53.544;10.226;2023-06-19T10:05:58;28.00;80.00
4725;DHT22;2376;53.544;10.226;2023-06-19T10:08:29;28.00;79.20
4725;DHT22;2376;53.544;10.226;2023-06-19T10:10:56;28.10;78.90
4725;DHT22;2376;53.544;10.226;2023-06-19T10:13:31;28.10;77.70
4725;DHT22;2376;53.544;10.226;2023-06-19T10:15:58;28.20;77.50
4725;DHT22;2376;53.544;10.226;2023-06-19T10:18:25;28.20;76.40
4725;DHT22;2376;53.544;10.226;2023-06-19T10:20:52;28.30;75.60
4725;DHT22;2376;53.544;10.226;2023-06-19T10:23:21;28.30;74.60
4725;DHT22;2376;53.544;10.226;2023-06-19T10:25:55;28.30;72.80
4725;DHT22;2376;53.544;10.226;2023-06-19T10:28:24;28.10;73.60
4725;DHT22;2376;53.544;10.226;2023-06-19T10:30:53;28.20;73.50
4725;DHT22;2376;53.544;10.226;2023-06-19T10:33:20;28.30;73.00
4725;DHT22;2376;53.544;10.226;2023-06-19T10:35:47;28.40;72.70
4725;DHT22;2376;53.544;10.226;2023-06-19T10:38:15;28.50;72.40
4725;DHT22;2376;53.544;10.226;2023-06-19T10:40:44;28.50;72.30
4725;DHT22;2376;53.544;10.226;2023-06-19T10:43:11;28.60;70.90
4725;DHT22;2376;53.544;10.226;2023-06-19T10:45:39;28.70;71.20
4725;DHT22;2376;53.544;10.226;2023-06-19T10:48:05;28.80;70.70
4725;DHT22;2376;53.544;10.226;2023-06-19T10:50:37;28.80;69.70
4725;DHT22;2376;53.544;10.226;2023-06-19T10:53:06;28.90;70.00
4725;DHT22;2376;53.544;10.226;2023-06-19T10:55:32;29.00;69.70
4725;DHT22;2376;53.544;10.226;2023-06-19T10:57:59;29.20;70.20
4725;DHT22;2376;53.544;10.226;2023-06-19T11:00:27;29.10;68.50
4725;DHT22;2376;53.544;10.226;2023-06-19T11:02:55;29.20;69.10
4725;DHT22;2376;53.544;10.226;2023-06-19T11:05:23;29.30;68.50
4725;DHT22;2376;53.544;10.226;2023-06-19T11:07:51;29.50;67.40
4725;DHT22;2376;53.544;10.226;2023-06-19T11:10:22;29.50;67.80
4725;DHT22;2376;53.544;10.226;2023-06-19T11:12:49;29.80;67.20
4725;DHT22;2376;53.544;10.226;2023-06-19T11:15:16;29.90;65.60
4725;DHT22;2376;53.544;10.226;2023-06-19T11:17:43;29.90;62.90
4725;DHT22;2376;53.544;10.226;2023-06-19T11:20:12;30.10;61.70
4725;DHT22;2376;53.544;10.226;2023-06-19T11:22:40;30.10;61.60
4725;DHT22;2376;53.544;10.226;2023-06-19T11:25:09;30.10;60.70
4725;DHT22;2376;53.544;10.226;2023-06-19T11:27:38;30.20;60.10
4725;DHT22;2376;53.544;10.226;2023-06-19T11:30:06;30.30;60.40
4725;DHT22;2376;53.544;10.226;2023-06-19T11:32:35;30.50;60.40
4725;DHT22;2376;53.544;10.226;2023-06-19T11:35:07;30.50;59.20
4725;DHT22;2376;53.544;10.226;2023-06-19T11:37:36;30.60;58.00
4725;DHT22;2376;53.544;10.226;2023-06-19T11:40:03;30.80;58.30
4725;DHT22;2376;53.544;10.226;2023-06-19T11:42:47;30.90;57.60
4725;DHT22;2376;53.544;10.226;2023-06-19T11:45:14;30.90;58.00
4725;DHT22;2376;53.544;10.226;2023-06-19T11:47:43;30.90;57.10
4725;DHT22;2376;53.544;10.226;2023-06-19T11:50:11;30.90;56.70
4725;DHT22;2376;53.544;10.226;2023-06-19T11:52:39;30.80;56.40
4725;DHT22;2376;53.544;10.226;2023-06-19T11:55:07;30.80;56.60
4725;DHT22;2376;53.544;10.226;2023-06-19T11:57:34;30.70;56.40
4725;DHT22;2376;53.544;10.226;2023-06-19T12:00:01;30.70;56.50
4725;DHT22;2376;53.544;10.226;2023-06-19T12:02:32;30.70;57.20
4725;DHT22;2376;53.544;10.226;2023-06-19T12:04:58;30.80;57.00
4725;DHT22;2376;53.544;10.226;2023-06-19T12:07:26;30.70;56.60
4725;DHT22;2376;53.544;10.226;2023-06-19T12:09:54;30.80;56.10
4725;DHT22;2376;53.544;10.226;2023-06-19T12:12:20;30.90;55.60
4725;DHT22;2376;53.544;10.226;2023-06-19T12:14:47;31.00;55.60
4725;DHT22;2376;53.544;10.226;2023-06-19T12:17:14;31.00;54.50
4725;DHT22;2376;53.544;10.226;2023-06-19T12:19:40;31.00;54.10
4725;DHT22;2376;53.544;10.226;2023-06-19T12:22:07;30.90;54.20
4725;DHT22;2376;53.544;10.226;2023-06-19T12:24:34;31.10;54.40
4725;DHT22;2376;53.544;10.226;2023-06-19T12:27:02;31.00;54.00
4725;DHT22;2376;53.544;10.226;2023-06-19T12:29:29;31.00;53.10
4725;DHT22;2376;53.544;10.226;2023-06-19T12:32:00;30.90;53.00
4725;DHT22;2376;53.544;10.226;2023-06-19T12:34:27;30.90;53.30
4725;DHT22;2376;53.544;10.226;2023-06-19T12:36:53;30.80;53.10
4725;DHT22;2376;53.544;10.226;2023-06-19T12:39:22;30.70;53.30
4725;DHT22;2376;53.544;10.226;2023-06-19T12:41:50;30.70;53.70
4725;DHT22;2376;53.544;10.226;2023-06-19T12:44:18;30.50;53.50
4725;DHT22;2376;53.544;10.226;2023-06-19T12:46:45;30.50;53.70
4725;DHT22;2376;53.544;10.226;2023-06-19T12:49:11;30.40;54.60
4725;DHT22;2376;53.544;10.226;2023-06-19T12:51:38;30.50;55.40
4725;DHT22;2376;53.544;10.226;2023-06-19T12:54:05;30.60;55.80
4725;DHT22;2376;53.544;10.226;2023-06-19T12:56:31;30.70;56.20
4725;DHT22;2376;53.544;10.226;2023-06-19T12:58:58;30.70;56.10
4725;DHT22;2376;53.544;10.226;2023-06-19T13:01:26;30.80;56.00
4725;DHT22;2376;53.544;10.226;2023-06-19T13:03:53;30.90;56.10
4725;DHT22;2376;53.544;10.226;2023-06-19T13:06:19;30.90;55.80
4725;DHT22;2376;53.544;10.226;2023-06-19T13:08:46;30.90;55.60
4725;DHT22;2376;53.544;10.226;2023-06-19T13:11:13;30.90;55.50
4725;DHT22;2376;53.544;10.226;2023-06-19T13:13:40;31.00;55.90
4725;DHT22;2376;53.544;10.226;2023-06-19T13:16:06;30.90;56.30
4725;DHT22;2376;53.544;10.226;2023-06-19T13:18:36;31.00;56.40
4725;DHT22;2376;53.544;10.226;2023-06-19T13:21:02;31.00;56.60
4725;DHT22;2376;53.544;10.226;2023-06-19T13:23:29;31.10;56.70
4725;DHT22;2376;53.544;10.226;2023-06-19T13:25:56;31.10;56.40
4725;DHT22;2376;53.544;10.226;2023-06-19T13:28:23;31.10;56.50
4725;DHT22;2376;53.544;10.226;2023-06-19T13:30:50;31.30;57.00
4725;DHT22;2376;53.544;10.226;2023-06-19T13:33:16;31.40;56.50
4725;DHT22;2376;53.544;10.226;2023-06-19T13:35:44;31.30;56.10
4725;DHT22;2376;53.544;10.226;2023-06-19T13:38:12;31.30;56.00
4725;DHT22;2376;53.544;10.226;2023-06-19T13:40:38;31.20;56.00
4725;DHT22;2376;53.544;10.226;2023-06-19T13:43:05;31.30;56.40
4725;DHT22;2376;53.544;10.226;2023-06-19T13:45:32;31.30;55.70
4725;DHT22;2376;53.544;10.226;2023-06-19T13:47:59;31.30;55.70
4725;DHT22;2376;53.544;10.226;2023-06-19T13:50:26;31.30;55.80
4725;DHT22;2376;53.544;10.226;2023-06-19T13:52:54;31.40;55.60
4725;DHT22;2376;53.544;10.226;2023-06-19T13:55:21;31.60;55.60
4725;DHT22;2376;53.544;10.226;2023-06-19T13:57:49;31.60;55.20
4725;DHT22;2376;53.544;10.226;2023-06-19T14:00:18;31.60;55.10
4725;DHT22;2376;53.544;10.226;2023-06-19T14:02:45;31.60;55.00
4725;DHT22;2376;53.544;10.226;2023-06-19T14:05:12;31.70;55.00
4725;DHT22;2376;53.544;10.226;2023-06-19T14:07:40;31.70;55.30
4725;DHT22;2376;53.544;10.226;2023-06-19T14:10:09;31.70;54.90
4725;DHT22;2376;53.544;10.226;2023-06-19T14:12:36;31.80;55.10
4725;DHT22;2376;53.544;10.226;2023-06-19T14:15:05;31.90;55.10
4725;DHT22;2376;53.544;10.226;2023-06-19T14:17:32;32.00;54.70
4725;DHT22;2376;53.544;10.226;2023-06-19T14:19:59;32.10;54.60
4725;DHT22;2376;53.544;10.226;2023-06-19T14:22:25;32.10;54.10
4725;DHT22;2376;53.544;10.226;2023-06-19T14:24:52;32.10;54.30
4725;DHT22;2376;53.544;10.226;2023-06-19T14:27:26;32.10;54.50
4725;DHT22;2376;53.544;10.226;2023-06-19T14:29:53;32.00;54.40
4725;DHT22;2376;53.544;10.226;2023-06-19T14:32:20;31.90;54.70
4725;DHT22;2376;53.544;10.226;2023-06-19T14:34:46;31.90;54.60
4725;DHT22;2376;53.544;10.226;2023-06-19T14:37:13;32.00;54.30
4725;DHT22;2376;53.544;10.226;2023-06-19T14:39:40;32.20;54.40
4725;DHT22;2376;53.544;10.226;2023-06-19T14:42:06;32.10;54.20
4725;DHT22;2376;53.544;10.226;2023-06-19T14:44:35;32.00;54.80
4725;DHT22;2376;53.544;10.226;2023-06-19T14:47:02;31.70;55.10
4725;DHT22;2376;53.544;10.226;2023-06-19T14:49:29;31.70;54.90
4725;DHT22;2376;53.544;10.226;2023-06-19T14:51:55;31.80;54.80
4725;DHT22;2376;53.544;10.226;2023-06-19T14:54:22;31.70;55.10
4725;DHT22;2376;53.544;10.226;2023-06-19T14:56:49;31.70;55.50
4725;DHT22;2376;53.544;10.226;2023-06-19T14:59:17;31.80;55.30
4725;DHT22;2376;53.544;10.226;2023-06-19T15:01:46;31.90;55.20
4725;DHT22;2376;53.544;10.226;2023-06-19T15:04:12;32.10;54.70
4725;DHT22;2376;53.544;10.226;2023-06-19T15:06:39;32.20;54.30
4725;DHT22;2376;53.544;10.226;2023-06-19T15:09:06;32.10;54.90
4725;DHT22;2376;53.544;10.226;2023-06-19T15:11:33;31.40;58.30
4725;DHT22;2376;53.544;10.226;2023-06-19T15:14:00;31.30;59.60
4725;DHT22;2376;53.544;10.226;2023-06-19T15:16:27;30.70;62.30
4725;DHT22;2376;53.544;10.226;2023-06-19T15:18:55;30.20;64.30
4725;DHT22;2376;53.544;10.226;2023-06-19T15:21:22;29.80;65.60
4725;DHT22;2376;53.544;10.226;2023-06-19T15:23:54;29.50;67.40
4725;DHT22;2376;53.544;10.226;2023-06-19T15:26:21;29.60;68.90
4725;DHT22;2376;53.544;10.226;2023-06-19T15:28:48;29.00;70.50
4725;DHT22;2376;53.544;10.226;2023-06-19T15:31:19;28.70;73.50
4725;DHT22;2376;53.544;10.226;2023-06-19T15:33:46;28.90;75.10
4725;DHT22;2376;53.544;10.226;2023-06-19T15:36:14;28.80;75.90
4725;DHT22;2376;53.544;10.226;2023-06-19T15:38:41;28.50;79.10
4725;DHT22;2376;53.544;10.226;2023-06-19T15:41:08;28.40;82.20
4725;DHT22;2376;53.544;10.226;2023-06-19T15:43:35;28.40;84.10
4725;DHT22;2376;53.544;10.226;2023-06-19T15:46:02;28.50;85.80